createdAt,value
2018-12-17T00:02:08.912Z,15.87
2018-12-17T00:04:39.660Z,14.77
2018-12-17T00:07:11.544Z,16.03
2018-12-17T00:09:41.611Z,16.77
2018-12-17T00:12:16.469Z,16.80
2018-12-17T00:14:44.571Z,16.50
2018-12-17T00:17:14.726Z,17.20
2018-12-17T00:19:44.812Z,15.03
2018-12-17T00:22:15.188Z,14.13
2018-12-17T00:24:45.233Z,14.60
2018-12-17T00:27:15.307Z,16.00
2018-12-17T00:29:46.580Z,14.77
2018-12-17T00:32:16.664Z,12.20
2018-12-17T00:34:46.820Z,11.93
2018-12-17T00:37:18.175Z,13.07
2018-12-17T00:39:48.323Z,13.80
2018-12-17T00:42:18.468Z,15.20
2018-12-17T00:44:49.719Z,14.93
2018-12-17T00:47:19.868Z,12.33
2018-12-17T00:49:51.207Z,14.20
2018-12-17T00:52:21.338Z,12.53
2018-12-17T00:54:51.515Z,13.10
2018-12-17T00:57:22.841Z,14.03
2018-12-17T00:59:52.973Z,11.33
2018-12-17T01:02:23.083Z,13.20
2018-12-17T01:04:54.439Z,14.07
2018-12-17T01:07:30.785Z,12.93
2018-12-17T01:10:02.387Z,13.33
2018-12-17T01:12:32.515Z,11.90
2018-12-17T01:15:02.781Z,12.40
2018-12-17T01:17:34.118Z,14.03
2018-12-17T01:20:05.003Z,12.00
2018-12-17T01:22:35.105Z,11.57
2018-12-17T01:25:06.674Z,12.00
2018-12-17T01:27:36.819Z,12.13
2018-12-17T01:30:08.677Z,13.13
2018-12-17T01:32:39.276Z,15.23
2018-12-17T01:35:09.432Z,13.67
2018-12-17T01:37:41.390Z,11.90
2018-12-17T01:40:11.591Z,12.73
2018-12-17T01:42:41.740Z,10.97
2018-12-17T01:45:13.459Z,10.67
2018-12-17T01:47:43.718Z,12.87
2018-12-17T01:50:14.066Z,12.33
2018-12-17T01:52:46.336Z,12.63
2018-12-17T01:55:16.494Z,12.00
2018-12-17T01:57:46.649Z,11.97
2018-12-17T02:00:18.088Z,12.40
2018-12-17T02:02:48.194Z,12.80
2018-12-17T02:05:18.283Z,11.47
2018-12-17T02:07:49.695Z,13.23
2018-12-17T02:10:19.851Z,12.87
2018-12-17T02:12:50.003Z,13.43
2018-12-17T02:15:20.478Z,12.43
2018-12-17T02:17:50.628Z,11.10
2018-12-17T02:20:20.870Z,10.90
2018-12-17T02:22:52.169Z,11.20
2018-12-17T02:25:22.376Z,12.93
2018-12-17T02:27:52.565Z,13.87
2018-12-17T02:30:22.746Z,12.00
2018-12-17T02:32:52.852Z,12.63
2018-12-17T02:35:25.262Z,11.60
2018-12-17T02:37:55.554Z,12.83
2018-12-17T02:40:25.813Z,12.03
2018-12-17T02:42:57.548Z,13.57
2018-12-17T02:45:27.679Z,11.53
2018-12-17T02:47:57.835Z,13.63
2018-12-17T02:50:29.233Z,13.93
2018-12-17T02:52:59.450Z,13.07
2018-12-17T02:55:29.569Z,14.53
2018-12-17T02:58:00.942Z,14.57
2018-12-17T03:00:31.015Z,13.30
2018-12-17T03:03:01.299Z,14.40
2018-12-17T03:05:32.640Z,10.47
2018-12-17T03:08:02.807Z,12.27
2018-12-17T03:10:33.153Z,14.80
2018-12-17T03:13:03.658Z,12.83
2018-12-17T03:15:33.892Z,14.77
2018-12-17T03:18:06.304Z,11.53
2018-12-17T03:20:36.443Z,11.57
2018-12-17T03:23:06.590Z,10.60
2018-12-17T03:25:38.962Z,10.30
2018-12-17T03:28:09.140Z,12.50
2018-12-17T03:30:39.305Z,9.83
2018-12-17T03:33:09.479Z,9.07
2018-12-17T03:35:40.840Z,8.90
2018-12-17T03:38:11.006Z,8.63
2018-12-17T03:40:41.206Z,8.60
2018-12-17T03:43:12.585Z,8.73
2018-12-17T03:45:42.731Z,10.27
2018-12-17T03:48:12.854Z,7.23
2018-12-17T03:50:44.241Z,8.07
2018-12-17T03:53:14.403Z,8.70
2018-12-17T03:55:44.514Z,7.47
2018-12-17T03:58:15.217Z,7.13
2018-12-17T04:00:45.373Z,6.27
2018-12-17T04:03:15.543Z,7.03
2018-12-17T04:05:46.846Z,7.20
2018-12-17T04:08:16.963Z,6.83
2018-12-17T04:10:47.118Z,9.10
2018-12-17T04:13:19.122Z,6.07
2018-12-17T04:15:49.269Z,7.30
2018-12-17T04:18:20.773Z,7.50
2018-12-17T04:20:50.812Z,7.07
2018-12-17T04:23:20.808Z,6.43
2018-12-17T04:25:53.041Z,6.33
2018-12-17T04:28:23.182Z,8.70
2018-12-17T04:30:53.363Z,8.13
2018-12-17T04:33:25.054Z,7.13
2018-12-17T04:35:55.193Z,8.80
2018-12-17T04:38:25.356Z,8.30
2018-12-17T04:40:58.085Z,8.03
2018-12-17T04:43:28.207Z,7.87
2018-12-17T04:45:58.301Z,8.00
2018-12-17T04:48:29.444Z,6.03
2018-12-17T04:50:59.620Z,7.87
2018-12-17T04:53:29.746Z,6.80
2018-12-17T04:56:01.204Z,5.87
2018-12-17T04:58:31.366Z,5.53
2018-12-17T05:01:01.614Z,6.43
2018-12-17T05:03:32.848Z,6.97
2018-12-17T05:06:03.044Z,6.90
2018-12-17T05:08:33.200Z,9.83
2018-12-17T05:11:03.291Z,5.90
2018-12-17T05:13:33.444Z,7.47
2018-12-17T05:16:05.934Z,8.03
2018-12-17T05:18:36.312Z,8.13
2018-12-17T05:21:06.447Z,7.30
2018-12-17T05:23:38.865Z,9.07
2018-12-17T05:26:08.977Z,6.53
2018-12-17T05:28:39.183Z,7.30
2018-12-17T05:31:10.890Z,6.43
2018-12-17T05:33:41.081Z,7.73
2018-12-17T05:36:11.300Z,10.07
2018-12-17T05:38:42.882Z,7.43
2018-12-17T05:41:12.997Z,8.63
2018-12-17T05:43:43.133Z,7.53
2018-12-17T05:46:15.275Z,9.53
2018-12-17T05:48:45.455Z,8.80
2018-12-17T05:51:15.578Z,10.17
2018-12-17T05:53:47.135Z,8.13
2018-12-17T05:56:17.278Z,8.60
2018-12-17T05:58:47.429Z,8.50
2018-12-17T06:01:19.181Z,7.57
2018-12-17T06:03:49.377Z,8.27
2018-12-17T06:06:19.580Z,9.63
2018-12-17T06:08:50.911Z,8.00
2018-12-17T06:11:21.055Z,7.37
2018-12-17T06:13:51.310Z,8.63
2018-12-17T06:16:21.579Z,9.93
2018-12-17T06:18:51.761Z,9.30
2018-12-17T06:21:23.416Z,8.00
2018-12-17T06:23:53.543Z,8.30
2018-12-17T06:26:23.713Z,8.47
2018-12-17T06:28:55.932Z,11.47
2018-12-17T06:31:26.068Z,10.20
2018-12-17T06:33:56.197Z,9.27
2018-12-17T06:36:27.597Z,9.23
2018-12-17T06:38:57.727Z,9.67
2018-12-17T06:41:27.899Z,7.47
2018-12-17T06:43:59.268Z,7.83
2018-12-17T06:46:29.473Z,8.40
2018-12-17T06:48:59.621Z,6.83
2018-12-17T06:51:31.043Z,8.60
2018-12-17T06:54:01.210Z,9.60
2018-12-17T06:56:31.383Z,9.57
2018-12-17T06:59:01.546Z,8.47
2018-12-17T07:01:32.310Z,7.60
2018-12-17T07:04:02.526Z,7.67
2018-12-17T07:06:32.981Z,9.40
2018-12-17T07:09:03.269Z,6.73
2018-12-17T07:11:33.475Z,7.77
2018-12-17T07:14:03.531Z,6.23
2018-12-17T07:16:33.733Z,5.97
2018-12-17T07:19:03.918Z,6.50
2018-12-17T07:21:34.170Z,6.67
2018-12-17T07:24:04.319Z,5.77
2018-12-17T07:26:35.852Z,6.67
2018-12-17T07:29:05.996Z,7.33
2018-12-17T07:31:36.291Z,5.57
2018-12-17T07:34:07.629Z,7.67
2018-12-17T07:36:37.849Z,6.90
2018-12-17T07:39:09.150Z,7.10
2018-12-17T07:41:40.367Z,6.50
2018-12-17T07:44:10.494Z,7.13
2018-12-17T07:46:42.388Z,6.07
2018-12-17T07:49:12.562Z,9.37
2018-12-17T07:51:42.732Z,8.20
2018-12-17T07:54:14.477Z,6.90
2018-12-17T07:56:44.734Z,10.20
2018-12-17T07:59:14.892Z,7.70
2018-12-17T08:01:46.741Z,7.77
2018-12-17T08:04:16.832Z,9.00
2018-12-17T08:06:46.985Z,8.07
2018-12-17T08:09:18.257Z,7.80
2018-12-17T08:11:48.401Z,6.80
2018-12-17T08:14:18.545Z,7.90
2018-12-17T08:16:50.955Z,8.37
2018-12-17T08:19:21.139Z,6.27
2018-12-17T08:21:51.436Z,6.57
2018-12-17T08:24:21.634Z,6.67
2018-12-17T08:26:52.027Z,8.87
2018-12-17T08:29:23.844Z,6.60
2018-12-17T08:31:53.994Z,7.80
2018-12-17T08:34:24.152Z,8.47
2018-12-17T08:36:54.342Z,7.37
2018-12-17T08:39:25.381Z,8.20
2018-12-17T08:41:55.607Z,6.53
2018-12-17T08:44:27.776Z,5.70
2018-12-17T08:46:57.927Z,7.63
2018-12-17T08:49:28.058Z,6.60
2018-12-17T08:51:59.826Z,5.97
2018-12-17T08:54:29.994Z,9.30
2018-12-17T08:57:00.158Z,6.87
2018-12-17T08:59:31.560Z,6.93
2018-12-17T09:02:01.736Z,6.37
2018-12-17T09:04:33.511Z,7.27
2018-12-17T09:07:03.971Z,6.17
2018-12-17T09:09:34.124Z,7.50
2018-12-17T09:12:05.783Z,6.23
2018-12-17T09:14:36.018Z,5.47
2018-12-17T09:17:06.210Z,9.33
2018-12-17T09:19:38.583Z,7.87
2018-12-17T09:22:09.802Z,7.20
2018-12-17T09:24:40.355Z,5.97
2018-12-17T09:27:12.850Z,6.43
2018-12-17T09:29:44.208Z,4.87
2018-12-17T09:32:14.364Z,6.43
2018-12-17T09:34:44.516Z,6.03
2018-12-17T09:37:16.090Z,6.97
2018-12-17T09:39:47.470Z,6.00
2018-12-17T09:42:17.606Z,10.30
2018-12-17T09:44:49.177Z,8.10
2018-12-17T09:47:20.634Z,6.70
2018-12-17T09:50:21.699Z,8.13
2018-12-17T09:52:52.757Z,5.37
2018-12-17T09:55:22.963Z,6.93
2018-12-17T09:57:54.948Z,10.00
2018-12-17T10:00:25.861Z,6.83
2018-12-17T10:02:57.474Z,6.43
2018-12-17T10:05:28.971Z,6.50
2018-12-17T10:08:00.276Z,6.87
2018-12-17T10:10:30.481Z,8.87
2018-12-17T10:13:00.549Z,7.43
2018-12-17T10:15:32.159Z,6.20
2018-12-17T10:18:03.463Z,8.03
2018-12-17T10:20:33.691Z,7.33
2018-12-17T10:23:05.193Z,4.93
2018-12-17T10:25:35.382Z,7.07
2018-12-17T10:28:05.502Z,7.53
2018-12-17T10:30:38.105Z,7.37
2018-12-17T10:33:09.405Z,5.43
2018-12-17T10:35:39.837Z,8.40
2018-12-17T10:38:11.304Z,9.80
2018-12-17T10:40:41.776Z,7.40
2018-12-17T10:43:11.983Z,5.67
2018-12-17T10:45:43.691Z,6.00
2018-12-17T10:48:14.773Z,6.53
2018-12-17T10:50:47.109Z,8.57
2018-12-17T10:53:18.553Z,6.90
2018-12-17T10:55:49.991Z,6.23
2018-12-17T10:58:21.832Z,6.13
2018-12-17T11:00:58.439Z,7.27
2018-12-17T11:03:38.759Z,7.60
2018-12-17T11:08:54.512Z,10.23
2018-12-17T11:11:27.297Z,8.63
2018-12-17T11:13:58.637Z,9.10
2018-12-17T11:16:31.148Z,10.93
2018-12-17T11:19:02.696Z,10.63
2018-12-17T11:21:33.114Z,9.73
2018-12-17T11:24:05.599Z,11.43
2018-12-17T11:26:35.998Z,9.50
2018-12-17T11:29:06.255Z,10.30
2018-12-17T11:31:38.091Z,14.63
2018-12-17T11:34:08.537Z,11.20
2018-12-17T11:36:38.997Z,12.50
2018-12-17T11:39:11.336Z,13.50
2018-12-17T11:41:42.963Z,11.30
2018-12-17T11:44:13.179Z,15.73
2018-12-17T11:46:45.427Z,15.17
2018-12-17T11:49:16.134Z,16.07
2018-12-17T11:51:47.957Z,15.50
2018-12-17T11:54:19.399Z,10.73
2018-12-17T11:57:44.713Z,13.00
2018-12-17T12:00:15.030Z,15.07
2018-12-17T12:02:47.317Z,14.27
2018-12-17T12:05:18.866Z,14.20
2018-12-17T12:07:50.251Z,10.53
2018-12-17T12:10:21.707Z,11.23
2018-12-17T12:12:52.075Z,11.13
2018-12-17T12:15:23.958Z,11.27
2018-12-17T12:17:55.322Z,11.20
2018-12-17T12:20:25.614Z,13.70
2018-12-17T12:22:57.826Z,11.77
2018-12-17T12:25:29.284Z,13.47
2018-12-17T12:28:02.450Z,9.70
2018-12-17T12:30:33.969Z,9.80
2018-12-17T12:33:07.291Z,10.63
2018-12-17T12:35:38.038Z,11.20
2018-12-17T12:38:10.021Z,12.07
2018-12-17T12:40:41.591Z,11.13
2018-12-17T12:43:11.817Z,9.23
2018-12-17T12:45:44.246Z,12.33
2018-12-17T12:48:15.912Z,13.80
2018-12-17T12:50:46.551Z,11.87
2018-12-17T12:53:18.530Z,12.77
2018-12-17T12:55:50.203Z,15.23
2018-12-17T12:58:20.512Z,10.87
2018-12-17T13:00:51.847Z,11.37
2018-12-17T13:03:23.583Z,10.80
2018-12-17T13:05:54.846Z,12.93
2018-12-17T13:08:26.923Z,10.53
2018-12-17T13:10:59.443Z,11.40
2018-12-17T13:13:31.040Z,7.73
2018-12-17T13:16:03.765Z,9.43
2018-12-17T13:18:34.200Z,11.93
2018-12-17T13:21:04.696Z,11.97
2018-12-17T13:23:37.232Z,10.20
2018-12-17T13:26:09.479Z,11.80
2018-12-17T13:28:40.124Z,10.77
2018-12-17T13:31:14.664Z,12.57
2018-12-17T13:33:45.081Z,11.70
2018-12-17T13:36:17.207Z,11.70
2018-12-17T13:38:48.187Z,10.40
2018-12-17T13:41:20.432Z,8.93
2018-12-17T13:43:52.635Z,8.43
2018-12-17T13:46:23.042Z,6.93
2018-12-17T13:48:55.896Z,10.00
2018-12-17T13:51:33.680Z,8.17
2018-12-17T13:54:05.278Z,14.47
2018-12-17T13:56:35.630Z,8.37
2018-12-17T13:59:05.889Z,7.53
2018-12-17T14:01:37.556Z,6.87
2018-12-17T14:04:08.207Z,8.93
2018-12-17T14:06:39.058Z,6.43
2018-12-17T14:09:12.883Z,8.23
2018-12-17T14:11:45.397Z,11.33
2018-12-17T14:14:16.284Z,9.50
2018-12-17T14:16:53.473Z,8.60
2018-12-17T14:19:26.069Z,10.67
2018-12-17T14:22:02.376Z,8.73
2018-12-17T14:24:34.930Z,12.23
2018-12-17T14:27:06.466Z,10.23
2018-12-17T14:29:38.224Z,7.93
2018-12-17T14:32:10.178Z,10.00
2018-12-17T14:37:21.945Z,8.50
2018-12-17T14:39:53.812Z,10.60
2018-12-17T14:42:26.724Z,9.27
2018-12-17T14:44:58.924Z,8.23
2018-12-17T14:47:30.718Z,9.83
2018-12-17T14:50:01.687Z,13.10
2018-12-17T14:52:34.544Z,9.60
2018-12-17T14:55:07.118Z,10.80
2018-12-17T14:57:37.819Z,12.27
2018-12-17T15:00:14.271Z,10.43
2018-12-17T15:02:44.787Z,12.10
2018-12-17T15:05:17.562Z,12.37
2018-12-17T15:07:49.102Z,10.63
2018-12-17T15:10:19.796Z,11.63
2018-12-17T15:12:51.171Z,11.83
2018-12-17T15:15:23.443Z,11.70
2018-12-17T15:17:55.418Z,13.00
2018-12-17T15:20:26.874Z,9.00
2018-12-17T15:23:00.214Z,8.63
2018-12-17T15:25:32.253Z,10.67
2018-12-17T15:28:03.204Z,12.60
2018-12-17T15:30:35.870Z,11.33
2018-12-17T15:33:07.845Z,12.13
2018-12-17T15:35:38.876Z,9.83
2018-12-17T15:38:12.026Z,12.30
2018-12-17T15:40:44.618Z,12.97
2018-12-17T15:43:18.053Z,10.63
2018-12-17T15:45:49.066Z,8.80
2018-12-17T15:48:23.001Z,9.40
2018-12-17T15:50:56.390Z,14.23
2018-12-17T15:53:28.755Z,12.87
2018-12-17T15:56:11.116Z,10.00
2018-12-17T15:58:42.345Z,13.70
2018-12-17T16:01:14.376Z,12.00
2018-12-17T16:03:46.350Z,12.30
2018-12-17T16:06:16.990Z,9.73
2018-12-17T16:08:49.596Z,11.67
2018-12-17T16:11:22.296Z,10.53
2018-12-17T16:13:54.137Z,10.57
2018-12-17T16:16:25.911Z,14.00
2018-12-17T16:18:56.323Z,12.23
2018-12-17T16:21:28.314Z,13.03
2018-12-17T16:23:59.271Z,12.77
2018-12-17T16:26:33.252Z,15.00
2018-12-17T16:29:05.565Z,11.33
2018-12-17T16:31:35.943Z,12.07
2018-12-17T16:34:08.470Z,10.07
2018-12-17T16:36:40.493Z,13.80
2018-12-17T16:39:11.952Z,12.10
2018-12-17T16:41:43.324Z,13.27
2018-12-17T16:44:15.614Z,13.23
2018-12-17T16:46:47.295Z,12.40
2018-12-17T16:49:18.819Z,14.87
2018-12-17T16:51:49.101Z,12.20
2018-12-17T16:54:21.398Z,12.93
2018-12-17T16:56:52.962Z,13.83
2018-12-17T16:59:23.253Z,13.47
2018-12-17T17:01:55.364Z,13.83
2018-12-17T17:04:26.808Z,13.13
2018-12-17T17:06:57.340Z,14.60
2018-12-17T17:09:29.621Z,15.40
2018-12-17T17:12:01.332Z,11.70
2018-12-17T17:14:31.562Z,17.13
2018-12-17T17:17:03.462Z,15.73
2018-12-17T17:19:34.976Z,15.33
2018-12-17T17:22:06.593Z,16.37
2018-12-17T17:24:37.203Z,15.07
2018-12-17T17:27:09.817Z,13.07
2018-12-17T17:29:41.388Z,18.10
2018-12-17T17:32:12.822Z,12.10
2018-12-17T17:34:43.226Z,11.77
2018-12-17T17:37:15.000Z,13.20
2018-12-17T17:39:46.522Z,10.53
2018-12-17T17:42:16.759Z,13.87
2018-12-17T17:44:47.806Z,12.27
2018-12-17T17:47:19.853Z,15.57
2018-12-17T17:49:51.289Z,17.07
2018-12-17T17:52:22.024Z,16.83
2018-12-17T17:54:52.676Z,13.07
2018-12-17T17:57:24.318Z,15.20
2018-12-17T17:59:56.021Z,16.40
2018-12-17T18:02:27.532Z,17.57
2018-12-17T18:04:58.255Z,16.63
2018-12-17T18:07:30.569Z,16.57
2018-12-17T18:10:04.530Z,14.90
2018-12-17T18:12:34.878Z,20.13
2018-12-17T18:15:05.862Z,14.63
2018-12-17T18:17:37.285Z,16.20
2018-12-17T18:20:09.220Z,16.00
2018-12-17T18:22:40.158Z,18.10
2018-12-17T18:25:10.465Z,14.03
2018-12-17T18:27:42.265Z,16.70
2018-12-17T18:30:14.177Z,16.77
2018-12-17T18:32:44.438Z,12.87
2018-12-17T18:35:15.491Z,18.07
2018-12-17T18:37:47.052Z,18.33
2018-12-17T18:40:17.577Z,15.97
2018-12-17T18:42:47.766Z,17.80
2018-12-17T18:45:20.104Z,17.37
2018-12-17T18:47:51.623Z,19.90
2018-12-17T18:50:22.354Z,15.53
2018-12-17T18:52:54.593Z,17.77
2018-12-17T18:55:26.029Z,20.53
2018-12-17T18:57:56.223Z,21.97
2018-12-17T19:00:26.456Z,18.47
2018-12-17T19:02:57.546Z,18.53
2018-12-17T19:05:29.052Z,18.63
2018-12-17T19:07:59.568Z,20.37
2018-12-17T19:10:33.900Z,18.47
2018-12-17T19:13:05.392Z,18.07
2018-12-17T19:15:36.339Z,17.20
2018-12-17T19:18:06.566Z,17.40
2018-12-17T19:20:36.843Z,17.10
2018-12-17T19:23:09.322Z,16.73
2018-12-17T19:25:41.163Z,19.60
2018-12-17T19:28:11.664Z,19.40
2018-12-17T19:30:43.395Z,16.87
2018-12-17T19:33:15.418Z,17.90
2018-12-17T19:35:45.753Z,16.60
2018-12-17T19:38:16.092Z,15.73
2018-12-17T19:40:48.285Z,16.97
2018-12-17T19:43:19.771Z,14.20
2018-12-17T19:45:51.235Z,18.70
2018-12-17T19:48:21.443Z,21.57
2018-12-17T19:50:53.893Z,19.67
2018-12-17T19:53:25.381Z,21.27
2018-12-17T19:55:56.771Z,19.60
2018-12-17T19:58:26.960Z,17.43
2018-12-17T20:00:57.169Z,16.00
2018-12-17T20:03:29.077Z,22.93
2018-12-17T20:06:00.671Z,19.70
2018-12-17T20:08:30.887Z,19.97
2018-12-17T20:11:01.234Z,21.23
2018-12-17T20:13:32.905Z,20.30
2018-12-17T20:16:04.634Z,19.23
2018-12-17T20:18:34.897Z,15.67
2018-12-17T20:21:06.734Z,17.83
2018-12-17T20:23:38.091Z,14.57
2018-12-17T20:26:09.537Z,18.53
2018-12-17T20:28:40.392Z,19.60
2018-12-17T20:31:10.555Z,15.37
2018-12-17T20:33:42.402Z,16.07
2018-12-17T20:36:13.956Z,18.53
2018-12-17T20:38:46.035Z,17.23
2018-12-17T20:41:17.478Z,18.03
2018-12-17T20:43:48.241Z,18.50
2018-12-17T20:46:18.475Z,16.53
2018-12-17T20:48:50.678Z,14.93
2018-12-17T20:51:22.054Z,14.00
2018-12-17T20:53:53.527Z,14.93
2018-12-17T20:56:23.737Z,17.03
2018-12-17T20:58:55.869Z,17.50
2018-12-17T21:01:27.443Z,17.90
2018-12-17T21:03:57.643Z,19.23
2018-12-17T21:06:31.682Z,16.23
2018-12-17T21:09:04.107Z,16.10
2018-12-17T21:11:34.335Z,16.47
2018-12-17T21:14:04.973Z,13.60
2018-12-17T21:16:36.975Z,16.43
2018-12-17T21:19:09.276Z,12.03
2018-12-17T21:21:40.663Z,16.83
2018-12-17T21:24:10.891Z,18.30
2018-12-17T21:26:43.042Z,17.00
2018-12-17T21:29:14.625Z,15.93
2018-12-17T21:31:44.816Z,14.10
2018-12-17T21:34:15.527Z,14.67
2018-12-17T21:36:47.898Z,11.70
2018-12-17T21:39:19.363Z,13.07
2018-12-17T21:41:49.919Z,17.20
2018-12-17T21:44:20.136Z,13.87
2018-12-17T21:46:52.935Z,15.37
2018-12-17T21:49:24.667Z,12.67
2018-12-17T21:51:55.283Z,15.47
2018-12-17T21:54:25.493Z,16.13
2018-12-17T21:56:55.729Z,14.50
2018-12-17T21:59:27.452Z,16.07
2018-12-17T22:01:58.830Z,13.73
2018-12-17T22:04:29.055Z,12.93
2018-12-17T22:07:00.602Z,16.70
2018-12-17T22:09:32.075Z,11.30
2018-12-17T22:12:02.391Z,19.10
2018-12-17T22:14:34.590Z,16.57
2018-12-17T22:17:06.068Z,18.43
2018-12-17T22:19:37.388Z,12.53
2018-12-17T22:22:07.581Z,13.77
2018-12-17T22:24:37.855Z,12.20
2018-12-17T22:27:10.275Z,13.70
2018-12-17T22:29:41.903Z,18.93
2018-12-17T22:32:12.090Z,15.27
2018-12-17T22:34:42.308Z,15.80
2018-12-17T22:37:14.705Z,15.73
2018-12-17T22:39:46.092Z,13.20
2018-12-17T22:42:17.452Z,15.20
2018-12-17T22:44:47.620Z,13.90
2018-12-17T22:47:19.709Z,12.67
2018-12-17T22:49:51.459Z,18.20
2018-12-17T22:52:21.903Z,13.27
2018-12-17T22:54:52.232Z,12.90
2018-12-17T22:57:22.413Z,13.90
2018-12-17T22:59:54.141Z,12.53
2018-12-17T23:02:25.542Z,19.67
2018-12-17T23:04:55.699Z,11.33
2018-12-17T23:07:27.633Z,15.00
2018-12-17T23:10:16.043Z,15.57
2018-12-17T23:13:04.523Z,15.63
2018-12-17T23:15:51.547Z,12.13
2018-12-17T23:18:21.396Z,15.67
2018-12-17T23:20:52.587Z,11.77
2018-12-17T23:23:23.284Z,11.90
2018-12-17T23:25:56.916Z,15.13
2018-12-17T23:28:28.066Z,11.97
2018-12-17T23:30:58.561Z,12.00
2018-12-17T23:33:33.063Z,9.57
2018-12-17T23:36:04.008Z,9.80
2018-12-17T23:38:34.467Z,11.13
2018-12-17T23:41:04.639Z,11.83
2018-12-17T23:43:37.304Z,13.00
2018-12-17T23:46:09.500Z,10.30
2018-12-17T23:48:40.933Z,11.67
2018-12-17T23:51:11.135Z,10.53
2018-12-17T23:53:42.690Z,12.73
2018-12-17T23:56:13.958Z,12.87
2018-12-17T23:58:44.153Z,11.63
